sensor_id;sensor_type;location;lat;lon;timestamp;temperature;humidity
19755;DHT22;10036;47.812;9.274;2023-03-13T00:00:48;6.70;99.90
19755;DHT22;10036;47.812;9.274;2023-03-13T00:03:15;6.70;99.90
19755;DHT22;10036;47.812;9.274;2023-03-13T00:05:42;6.70;99.90
19755;DHT22;10036;47.812;9.274;2023-03-13T00:08:10;6.70;99.90
19755;DHT22;10036;47.812;9.274;2023-03-13T00:10:37;6.70;99.90
19755;DHT22;10036;47.812;9.274;2023-03-13T00:13:04;6.70;99.90
19755;DHT22;10036;47.812;9.274;2023-03-13T00:15:31;6.70;99.90
19755;DHT22;10036;47.812;9.274;2023-03-13T00:17:58;6.70;99.90
19755;DHT22;10036;47.812;9.274;2023-03-13T00:20:25;6.70;99.90
19755;DHT22;10036;47.812;9.274;2023-03-13T00:22:52;6.70;99.90
19755;DHT22;10036;47.812;9.274;2023-03-13T00:25:20;6.70;99.90
19755;DHT22;10036;47.812;9.274;2023-03-13T00:27:47;6.70;99.90
19755;DHT22;10036;47.812;9.274;2023-03-13T00:30:14;6.70;99.90
19755;DHT22;10036;47.812;9.274;2023-03-13T00:32:41;6.70;99.90
19755;DHT22;10036;47.812;9.274;2023-03-13T00:35:08;6.80;99.90
19755;DHT22;10036;47.812;9.274;2023-03-13T00:37:35;6.80;99.90
19755;DHT22;10036;47.812;9.274;2023-03-13T00:40:03;6.80;99.90
19755;DHT22;10036;47.812;9.274;2023-03-13T00:42:31;6.80;99.90
19755;DHT22;10036;47.812;9.274;2023-03-13T00:44:58;6.80;99.90
19755;DHT22;10036;47.812;9.274;2023-03-13T00:47:25;6.80;99.90
19755;DHT22;10036;47.812;9.274;2023-03-13T00:49:52;6.80;99.90
19755;DHT22;10036;47.812;9.274;2023-03-13T00:52:18;6.80;99.90
19755;DHT22;10036;47.812;9.274;2023-03-13T00:54:45;6.80;99.90
19755;DHT22;10036;47.812;9.274;2023-03-13T00:57:12;6.80;99.90
19755;DHT22;10036;47.812;9.274;2023-03-13T00:59:40;6.80;99.90
19755;DHT22;10036;47.812;9.274;2023-03-13T01:02:07;6.80;99.90
19755;DHT22;10036;47.812;9.274;2023-03-13T01:04:34;6.80;99.90
19755;DHT22;10036;47.812;9.274;2023-03-13T01:07:01;6.80;99.90
19755;DHT22;10036;47.812;9.274;2023-03-13T01:09:28;6.80;99.90
19755;DHT22;10036;47.812;9.274;2023-03-13T01:11:54;6.80;99.90
19755;DHT22;10036;47.812;9.274;2023-03-13T01:14:21;6.80;99.90
19755;DHT22;10036;47.812;9.274;2023-03-13T01:16:49;6.80;99.90
19755;DHT22;10036;47.812;9.274;2023-03-13T01:19:16;6.90;99.90
19755;DHT22;10036;47.812;9.274;2023-03-13T01:21:44;7.00;99.90
19755;DHT22;10036;47.812;9.274;2023-03-13T01:24:11;7.00;99.90
19755;DHT22;10036;47.812;9.274;2023-03-13T01:26:38;7.10;99.90
19755;DHT22;10036;47.812;9.274;2023-03-13T01:29:05;7.10;99.90
19755;DHT22;10036;47.812;9.274;2023-03-13T01:31:34;7.10;99.90
19755;DHT22;10036;47.812;9.274;2023-03-13T01:34:04;7.10;99.90
19755;DHT22;10036;47.812;9.274;2023-03-13T01:36:31;7.10;99.90
19755;DHT22;10036;47.812;9.274;2023-03-13T01:38:59;7.10;99.90
19755;DHT22;10036;47.812;9.274;2023-03-13T01:41:28;7.10;99.90
19755;DHT22;10036;47.812;9.274;2023-03-13T01:43:55;7.20;99.90
19755;DHT22;10036;47.812;9.274;2023-03-13T01:46:23;7.30;99.90
19755;DHT22;10036;47.812;9.274;2023-03-13T01:48:53;7.40;99.90
19755;DHT22;10036;47.812;9.274;2023-03-13T01:51:26;7.40;99.90
19755;DHT22;10036;47.812;9.274;2023-03-13T01:53:58;7.30;99.90
19755;DHT22;10036;47.812;9.274;2023-03-13T01:56:33;7.30;99.90
19755;DHT22;10036;47.812;9.274;2023-03-13T01:59:02;7.30;99.90
19755;DHT22;10036;47.812;9.274;2023-03-13T02:01:30;7.20;99.90
19755;DHT22;10036;47.812;9.274;2023-03-13T02:03:58;7.20;99.90
19755;DHT22;10036;47.812;9.274;2023-03-13T02:06:28;7.20;99.90
19755;DHT22;10036;47.812;9.274;2023-03-13T02:08:58;7.10;99.90
19755;DHT22;10036;47.812;9.274;2023-03-13T02:11:34;7.00;99.90
19755;DHT22;10036;47.812;9.274;2023-03-13T02:14:03;7.00;99.90
19755;DHT22;10036;47.812;9.274;2023-03-13T02:16:32;7.00;99.90
19755;DHT22;10036;47.812;9.274;2023-03-13T02:19:00;7.00;99.90
19755;DHT22;10036;47.812;9.274;2023-03-13T02:21:38;7.00;99.90
19755;DHT22;10036;47.812;9.274;2023-03-13T02:24:12;7.00;99.90
19755;DHT22;10036;47.812;9.274;2023-03-13T02:26:42;7.10;99.90
19755;DHT22;10036;47.812;9.274;2023-03-13T02:29:10;7.10;99.90
19755;DHT22;10036;47.812;9.274;2023-03-13T02:31:44;7.00;99.90
19755;DHT22;10036;47.812;9.274;2023-03-13T02:34:13;7.10;99.90
19755;DHT22;10036;47.812;9.274;2023-03-13T02:36:42;7.10;99.90
19755;DHT22;10036;47.812;9.274;2023-03-13T02:39:11;7.20;99.90
19755;DHT22;10036;47.812;9.274;2023-03-13T02:41:42;7.20;99.90
19755;DHT22;10036;47.812;9.274;2023-03-13T02:44:10;7.30;99.90
19755;DHT22;10036;47.812;9.274;2023-03-13T02:46:44;7.40;99.90
19755;DHT22;10036;47.812;9.274;2023-03-13T02:49:25;7.40;99.90
19755;DHT22;10036;47.812;9.274;2023-03-13T02:51:53;7.40;99.90
19755;DHT22;10036;47.812;9.274;2023-03-13T02:54:22;7.40;99.90
19755;DHT22;10036;47.812;9.274;2023-03-13T02:56:54;7.40;99.90
19755;DHT22;10036;47.812;9.274;2023-03-13T02:59:22;7.40;99.90
19755;DHT22;10036;47.812;9.274;2023-03-13T03:01:49;7.40;99.90
19755;DHT22;10036;47.812;9.274;2023-03-13T03:04:18;7.50;99.90
19755;DHT22;10036;47.812;9.274;2023-03-13T03:06:46;7.50;99.90
19755;DHT22;10036;47.812;9.274;2023-03-13T03:09:14;7.40;99.90
19755;DHT22;10036;47.812;9.274;2023-03-13T03:11:41;7.40;99.90
19755;DHT22;10036;47.812;9.274;2023-03-13T03:14:10;7.40;99.90
19755;DHT22;10036;47.812;9.274;2023-03-13T03:16:38;7.40;99.90
19755;DHT22;10036;47.812;9.274;2023-03-13T03:19:05;7.40;99.90
19755;DHT22;10036;47.812;9.274;2023-03-13T03:21:32;7.50;99.90
19755;DHT22;10036;47.812;9.274;2023-03-13T03:24:00;7.40;99.90
19755;DHT22;10036;47.812;9.274;2023-03-13T03:26:27;7.40;99.90
19755;DHT22;10036;47.812;9.274;2023-03-13T03:28:53;7.40;99.90
19755;DHT22;10036;47.812;9.274;2023-03-13T03:31:22;7.40;99.90
19755;DHT22;10036;47.812;9.274;2023-03-13T03:33:49;7.40;99.90
19755;DHT22;10036;47.812;9.274;2023-03-13T03:36:18;7.40;99.90
19755;DHT22;10036;47.812;9.274;2023-03-13T03:38:45;7.40;99.90
19755;DHT22;10036;47.812;9.274;2023-03-13T03:41:12;7.40;99.90
19755;DHT22;10036;47.812;9.274;2023-03-13T03:43:39;7.40;99.90
19755;DHT22;10036;47.812;9.274;2023-03-13T03:46:06;7.30;99.90
19755;DHT22;10036;47.812;9.274;2023-03-13T03:48:35;7.30;99.90
19755;DHT22;10036;47.812;9.274;2023-03-13T03:51:02;7.30;99.90
19755;DHT22;10036;47.812;9.274;2023-03-13T03:53:29;7.30;99.90
19755;DHT22;10036;47.812;9.274;2023-03-13T03:55:57;7.30;99.90
19755;DHT22;10036;47.812;9.274;2023-03-13T03:58:24;7.30;99.90
19755;DHT22;10036;47.812;9.274;2023-03-13T04:00:50;7.30;99.90
19755;DHT22;10036;47.812;9.274;2023-03-13T04:03:17;7.30;99.90
19755;DHT22;10036;47.812;9.274;2023-03-13T04:05:45;7.20;99.90
19755;DHT22;10036;47.812;9.274;2023-03-13T04:08:12;7.20;99.90
19755;DHT22;10036;47.812;9.274;2023-03-13T04:10:42;7.20;99.90
19755;DHT22;10036;47.812;9.274;2023-03-13T04:13:09;7.20;99.90
19755;DHT22;10036;47.812;9.274;2023-03-13T04:15:37;7.20;99.90
19755;DHT22;10036;47.812;9.274;2023-03-13T04:18:04;7.20;99.90
19755;DHT22;10036;47.812;9.274;2023-03-13T04:20:31;7.10;99.90
19755;DHT22;10036;47.812;9.274;2023-03-13T04:23:00;7.10;99.90
19755;DHT22;10036;47.812;9.274;2023-03-13T04:25:27;7.20;99.90
19755;DHT22;10036;47.812;9.274;2023-03-13T04:27:53;7.10;99.90
19755;DHT22;10036;47.812;9.274;2023-03-13T04:30:20;7.10;99.90
19755;DHT22;10036;47.812;9.274;2023-03-13T04:32:48;7.10;99.90
19755;DHT22;10036;47.812;9.274;2023-03-13T04:35:15;7.10;99.90
19755;DHT22;10036;47.812;9.274;2023-03-13T04:37:42;7.10;99.90
19755;DHT22;10036;47.812;9.274;2023-03-13T04:40:11;7.20;99.90
19755;DHT22;10036;47.812;9.274;2023-03-13T04:42:39;7.20;99.90
19755;DHT22;10036;47.812;9.274;2023-03-13T04:45:07;7.20;99.90
19755;DHT22;10036;47.812;9.274;2023-03-13T04:47:35;7.20;99.90
19755;DHT22;10036;47.812;9.274;2023-03-13T04:50:02;7.20;99.90
19755;DHT22;10036;47.812;9.274;2023-03-13T04:52:28;7.20;99.90
19755;DHT22;10036;47.812;9.274;2023-03-13T04:54:55;7.20;99.90
19755;DHT22;10036;47.812;9.274;2023-03-13T04:57:23;7.20;99.90
19755;DHT22;10036;47.812;9.274;2023-03-13T04:59:50;7.30;99.90
19755;DHT22;10036;47.812;9.274;2023-03-13T05:02:17;7.30;99.90
19755;DHT22;10036;47.812;9.274;2023-03-13T05:04:44;7.30;99.90
19755;DHT22;10036;47.812;9.274;2023-03-13T05:07:11;7.50;99.90
19755;DHT22;10036;47.812;9.274;2023-03-13T05:09:37;7.70;99.90
19755;DHT22;10036;47.812;9.274;2023-03-13T05:12:05;7.70;99.90
19755;DHT22;10036;47.812;9.274;2023-03-13T05:14:33;7.70;99.90
19755;DHT22;10036;47.812;9.274;2023-03-13T05:17:00;7.80;99.90
19755;DHT22;10036;47.812;9.274;2023-03-13T05:19:27;7.90;99.90
19755;DHT22;10036;47.812;9.274;2023-03-13T05:21:54;7.90;99.90
19755;DHT22;10036;47.812;9.274;2023-03-13T05:24:20;7.90;99.90
19755;DHT22;10036;47.812;9.274;2023-03-13T05:26:47;7.80;99.90
19755;DHT22;10036;47.812;9.274;2023-03-13T05:29:14;7.90;99.90
19755;DHT22;10036;47.812;9.274;2023-03-13T05:31:43;7.90;99.90
19755;DHT22;10036;47.812;9.274;2023-03-13T05:34:09;7.90;99.90
19755;DHT22;10036;47.812;9.274;2023-03-13T05:36:36;8.00;99.90
19755;DHT22;10036;47.812;9.274;2023-03-13T05:39:03;8.10;99.90
19755;DHT22;10036;47.812;9.274;2023-03-13T05:41:30;8.30;99.90
19755;DHT22;10036;47.812;9.274;2023-03-13T05:43:57;8.30;99.90
19755;DHT22;10036;47.812;9.274;2023-03-13T05:46:23;8.30;99.90
19755;DHT22;10036;47.812;9.274;2023-03-13T05:48:52;8.20;99.90
19755;DHT22;10036;47.812;9.274;2023-03-13T05:51:18;8.10;99.90
19755;DHT22;10036;47.812;9.274;2023-03-13T05:53:45;8.10;99.90
19755;DHT22;10036;47.812;9.274;2023-03-13T05:56:12;8.10;99.90
19755;DHT22;10036;47.812;9.274;2023-03-13T05:58:39;8.00;99.90
19755;DHT22;10036;47.812;9.274;2023-03-13T06:01:07;8.00;99.90
19755;DHT22;10036;47.812;9.274;2023-03-13T06:03:34;8.00;99.90
19755;DHT22;10036;47.812;9.274;2023-03-13T06:06:02;8.00;99.90
19755;DHT22;10036;47.812;9.274;2023-03-13T06:08:29;8.00;99.90
19755;DHT22;10036;47.812;9.274;2023-03-13T06:10:58;8.00;99.90
19755;DHT22;10036;47.812;9.274;2023-03-13T06:13:26;8.10;99.90
19755;DHT22;10036;47.812;9.274;2023-03-13T06:15:54;8.00;99.90
19755;DHT22;10036;47.812;9.274;2023-03-13T06:18:22;8.00;99.90
19755;DHT22;10036;47.812;9.274;2023-03-13T06:20:52;8.00;99.90
19755;DHT22;10036;47.812;9.274;2023-03-13T06:23:22;8.10;99.90
19755;DHT22;10036;47.812;9.274;2023-03-13T06:25:50;8.10;99.90
19755;DHT22;10036;47.812;9.274;2023-03-13T06:28:17;8.20;99.90
19755;DHT22;10036;47.812;9.274;2023-03-13T06:30:43;8.50;99.90
19755;DHT22;10036;47.812;9.274;2023-03-13T06:33:10;8.50;99.90
19755;DHT22;10036;47.812;9.274;2023-03-13T06:35:39;8.60;99.90
19755;DHT22;10036;47.812;9.274;2023-03-13T06:38:06;8.50;99.90
19755;DHT22;10036;47.812;9.274;2023-03-13T06:40:34;8.50;99.90
19755;DHT22;10036;47.812;9.274;2023-03-13T06:43:01;8.60;99.90
19755;DHT22;10036;47.812;9.274;2023-03-13T06:45:28;8.50;99.90
19755;DHT22;10036;47.812;9.274;2023-03-13T06:47:54;8.50;99.90
19755;DHT22;10036;47.812;9.274;2023-03-13T06:50:21;8.60;99.90
19755;DHT22;10036;47.812;9.274;2023-03-13T06:52:48;8.60;99.90
19755;DHT22;10036;47.812;9.274;2023-03-13T06:55:15;8.60;99.90
19755;DHT22;10036;47.812;9.274;2023-03-13T06:57:43;8.60;99.90
19755;DHT22;10036;47.812;9.274;2023-03-13T07:00:11;8.70;99.90
19755;DHT22;10036;47.812;9.274;2023-03-13T07:02:38;8.70;99.90
19755;DHT22;10036;47.812;9.274;2023-03-13T07:05:05;8.70;99.90
19755;DHT22;10036;47.812;9.274;2023-03-13T07:07:33;8.80;99.90
19755;DHT22;10036;47.812;9.274;2023-03-13T07:10:00;8.80;99.90
19755;DHT22;10036;47.812;9.274;2023-03-13T07:12:27;8.80;99.90
19755;DHT22;10036;47.812;9.274;2023-03-13T07:14:55;8.90;99.90
19755;DHT22;10036;47.812;9.274;2023-03-13T07:17:22;8.90;99.90
19755;DHT22;10036;47.812;9.274;2023-03-13T07:19:48;8.90;99.90
19755;DHT22;10036;47.812;9.274;2023-03-13T07:22:15;9.00;99.90
19755;DHT22;10036;47.812;9.274;2023-03-13T07:24:42;9.00;99.90
19755;DHT22;10036;47.812;9.274;2023-03-13T07:27:09;9.00;99.90
19755;DHT22;10036;47.812;9.274;2023-03-13T07:29:36;9.00;99.90
19755;DHT22;10036;47.812;9.274;2023-03-13T07:32:05;9.10;99.90
19755;DHT22;10036;47.812;9.274;2023-03-13T07:34:32;9.10;99.90
19755;DHT22;10036;47.812;9.274;2023-03-13T07:36:58;9.20;99.90
19755;DHT22;10036;47.812;9.274;2023-03-13T07:39:25;9.30;99.90
19755;DHT22;10036;47.812;9.274;2023-03-13T07:41:52;9.40;99.90
19755;DHT22;10036;47.812;9.274;2023-03-13T07:44:19;9.40;99.90
19755;DHT22;10036;47.812;9.274;2023-03-13T07:46:46;9.50;99.90
19755;DHT22;10036;47.812;9.274;2023-03-13T07:49:16;9.60;99.90
19755;DHT22;10036;47.812;9.274;2023-03-13T07:51:42;9.70;99.90
19755;DHT22;10036;47.812;9.274;2023-03-13T07:54:12;9.80;99.90
19755;DHT22;10036;47.812;9.274;2023-03-13T07:56:39;9.90;99.90
19755;DHT22;10036;47.812;9.274;2023-03-13T07:59:06;9.90;99.90
19755;DHT22;10036;47.812;9.274;2023-03-13T08:01:33;10.00;99.90
19755;DHT22;10036;47.812;9.274;2023-03-13T08:04:00;10.10;99.90
19755;DHT22;10036;47.812;9.274;2023-03-13T08:06:29;10.10;99.90
19755;DHT22;10036;47.812;9.274;2023-03-13T08:08:57;10.20;99.90
19755;DHT22;10036;47.812;9.274;2023-03-13T08:11:25;10.20;99.90
19755;DHT22;10036;47.812;9.274;2023-03-13T08:13:54;10.30;99.90
19755;DHT22;10036;47.812;9.274;2023-03-13T08:16:22;10.30;99.90
19755;DHT22;10036;47.812;9.274;2023-03-13T08:18:52;10.30;99.90
19755;DHT22;10036;47.812;9.274;2023-03-13T08:21:20;10.40;99.90
19755;DHT22;10036;47.812;9.274;2023-03-13T08:23:52;10.50;99.90
19755;DHT22;10036;47.812;9.274;2023-03-13T08:26:21;10.40;99.90
19755;DHT22;10036;47.812;9.274;2023-03-13T08:28:51;10.50;99.90
19755;DHT22;10036;47.812;9.274;2023-03-13T08:31:21;10.50;99.90
19755;DHT22;10036;47.812;9.274;2023-03-13T08:33:48;10.50;99.90
19755;DHT22;10036;47.812;9.274;2023-03-13T08:36:17;10.60;99.90
19755;DHT22;10036;47.812;9.274;2023-03-13T08:38:45;10.70;99.90
19755;DHT22;10036;47.812;9.274;2023-03-13T08:41:15;10.90;99.90
19755;DHT22;10036;47.812;9.274;2023-03-13T08:43:42;10.90;99.90
19755;DHT22;10036;47.812;9.274;2023-03-13T08:46:09;11.00;99.90
19755;DHT22;10036;47.812;9.274;2023-03-13T08:48:36;11.00;99.90
19755;DHT22;10036;47.812;9.274;2023-03-13T08:51:05;11.20;99.90
19755;DHT22;10036;47.812;9.274;2023-03-13T08:53:33;11.20;99.90
19755;DHT22;10036;47.812;9.274;2023-03-13T08:56:00;11.20;99.90
19755;DHT22;10036;47.812;9.274;2023-03-13T08:58:29;11.30;99.90
19755;DHT22;10036;47.812;9.274;2023-03-13T09:01:00;11.50;99.90
19755;DHT22;10036;47.812;9.274;2023-03-13T09:03:27;11.60;99.90
19755;DHT22;10036;47.812;9.274;2023-03-13T09:05:55;11.70;99.90
19755;DHT22;10036;47.812;9.274;2023-03-13T09:08:23;11.70;99.90
19755;DHT22;10036;47.812;9.274;2023-03-13T09:10:54;11.70;99.90
19755;DHT22;10036;47.812;9.274;2023-03-13T09:13:22;11.80;99.90
19755;DHT22;10036;47.812;9.274;2023-03-13T09:15:55;11.60;99.90
19755;DHT22;10036;47.812;9.274;2023-03-13T09:18:22;11.70;99.90
19755;DHT22;10036;47.812;9.274;2023-03-13T09:20:49;11.70;99.90
19755;DHT22;10036;47.812;9.274;2023-03-13T09:23:16;11.80;99.90
19755;DHT22;10036;47.812;9.274;2023-03-13T09:25:43;12.00;99.90
19755;DHT22;10036;47.812;9.274;2023-03-13T09:28:10;12.00;99.90
19755;DHT22;10036;47.812;9.274;2023-03-13T09:30:37;11.90;99.90
19755;DHT22;10036;47.812;9.274;2023-03-13T09:33:05;11.90;99.90
19755;DHT22;10036;47.812;9.274;2023-03-13T09:35:32;12.00;99.90
19755;DHT22;10036;47.812;9.274;2023-03-13T09:37:59;12.10;99.90
19755;DHT22;10036;47.812;9.274;2023-03-13T09:40:27;12.10;99.90
19755;DHT22;10036;47.812;9.274;2023-03-13T09:42:55;12.20;99.90
19755;DHT22;10036;47.812;9.274;2023-03-13T09:45:28;12.30;99.90
19755;DHT22;10036;47.812;9.274;2023-03-13T09:48:01;12.40;99.90
19755;DHT22;10036;47.812;9.274;2023-03-13T09:50:33;12.50;99.90
19755;DHT22;10036;47.812;9.274;2023-03-13T09:53:05;12.70;99.90
19755;DHT22;10036;47.812;9.274;2023-03-13T09:55:37;12.70;99.90
19755;DHT22;10036;47.812;9.274;2023-03-13T09:58:12;12.90;99.90
19755;DHT22;10036;47.812;9.274;2023-03-13T10:00:42;13.00;99.90
19755;DHT22;10036;47.812;9.274;2023-03-13T10:03:13;13.10;99.90
19755;DHT22;10036;47.812;9.274;2023-03-13T10:05:47;13.20;99.90
19755;DHT22;10036;47.812;9.274;2023-03-13T10:08:17;13.20;99.90
19755;DHT22;10036;47.812;9.274;2023-03-13T10:10:47;13.30;99.90
19755;DHT22;10036;47.812;9.274;2023-03-13T10:13:19;13.30;99.90
19755;DHT22;10036;47.812;9.274;2023-03-13T10:15:50;13.20;99.90
19755;DHT22;10036;47.812;9.274;2023-03-13T10:18:23;13.30;99.90
19755;DHT22;10036;47.812;9.274;2023-03-13T10:20:52;13.40;99.90
19755;DHT22;10036;47.812;9.274;2023-03-13T10:23:26;13.40;99.90
19755;DHT22;10036;47.812;9.274;2023-03-13T10:25:58;13.60;99.90
19755;DHT22;10036;47.812;9.274;2023-03-13T10:28:25;13.70;99.90
19755;DHT22;10036;47.812;9.274;2023-03-13T10:30:56;13.80;99.90
19755;DHT22;10036;47.812;9.274;2023-03-13T10:33:26;13.90;99.90
19755;DHT22;10036;47.812;9.274;2023-03-13T10:36:09;14.00;99.90
19755;DHT22;10036;47.812;9.274;2023-03-13T10:38:47;14.20;99.90
19755;DHT22;10036;47.812;9.274;2023-03-13T10:41:25;14.30;99.90
19755;DHT22;10036;47.812;9.274;2023-03-13T10:43:54;14.30;99.90
19755;DHT22;10036;47.812;9.274;2023-03-13T10:46:25;14.30;99.90
19755;DHT22;10036;47.812;9.274;2023-03-13T10:48:53;14.40;99.90
19755;DHT22;10036;47.812;9.274;2023-03-13T10:51:24;14.50;99.90
19755;DHT22;10036;47.812;9.274;2023-03-13T10:53:55;14.50;99.90
19755;DHT22;10036;47.812;9.274;2023-03-13T10:56:25;14.60;99.90
19755;DHT22;10036;47.812;9.274;2023-03-13T10:58:54;14.80;99.90
19755;DHT22;10036;47.812;9.274;2023-03-13T11:01:22;14.90;99.90
19755;DHT22;10036;47.812;9.274;2023-03-13T11:03:50;15.10;99.90
19755;DHT22;10036;47.812;9.274;2023-03-13T11:06:32;15.30;99.90
19755;DHT22;10036;47.812;9.274;2023-03-13T11:09:08;15.30;99.90
19755;DHT22;10036;47.812;9.274;2023-03-13T11:11:45;15.30;99.90
19755;DHT22;10036;47.812;9.274;2023-03-13T11:14:14;15.30;99.90
19755;DHT22;10036;47.812;9.274;2023-03-13T11:16:46;15.40;99.90
19755;DHT22;10036;47.812;9.274;2023-03-13T11:19:31;15.40;99.90
19755;DHT22;10036;47.812;9.274;2023-03-13T11:22:12;15.30;99.90
19755;DHT22;10036;47.812;9.274;2023-03-13T11:24:45;15.30;99.90
19755;DHT22;10036;47.812;9.274;2023-03-13T11:27:23;15.30;99.90
19755;DHT22;10036;47.812;9.274;2023-03-13T11:30:00;15.40;99.90
19755;DHT22;10036;47.812;9.274;2023-03-13T11:32:37;15.50;99.90
19755;DHT22;10036;47.812;9.274;2023-03-13T11:35:16;15.70;99.90
19755;DHT22;10036;47.812;9.274;2023-03-13T11:37:48;15.80;99.90
19755;DHT22;10036;47.812;9.274;2023-03-13T11:40:19;15.90;99.90
19755;DHT22;10036;47.812;9.274;2023-03-13T11:43:08;16.10;99.90
19755;DHT22;10036;47.812;9.274;2023-03-13T11:45:58;16.20;99.90
19755;DHT22;10036;47.812;9.274;2023-03-13T11:48:52;16.30;99.90
19755;DHT22;10036;47.812;9.274;2023-03-13T11:51:25;16.30;99.90
19755;DHT22;10036;47.812;9.274;2023-03-13T11:54:10;16.40;99.90
19755;DHT22;10036;47.812;9.274;2023-03-13T11:56:46;16.60;99.90
19755;DHT22;10036;47.812;9.274;2023-03-13T11:59:27;16.60;99.90
19755;DHT22;10036;47.812;9.274;2023-03-13T12:01:59;16.70;99.90
19755;DHT22;10036;47.812;9.274;2023-03-13T12:04:29;16.70;99.90
19755;DHT22;10036;47.812;9.274;2023-03-13T12:07:02;16.80;99.90
19755;DHT22;10036;47.812;9.274;2023-03-13T12:09:35;16.80;99.90
19755;DHT22;10036;47.812;9.274;2023-03-13T12:12:11;16.90;99.90
19755;DHT22;10036;47.812;9.274;2023-03-13T12:14:43;16.90;99.90
19755;DHT22;10036;47.812;9.274;2023-03-13T12:17:14;17.00;99.90
19755;DHT22;10036;47.812;9.274;2023-03-13T12:19:49;17.20;99.90
19755;DHT22;10036;47.812;9.274;2023-03-13T12:22:19;17.30;99.90
19755;DHT22;10036;47.812;9.274;2023-03-13T12:24:54;17.40;99.90
19755;DHT22;10036;47.812;9.274;2023-03-13T12:27:27;17.40;99.90
19755;DHT22;10036;47.812;9.274;2023-03-13T12:30:00;17.50;99.90
19755;DHT22;10036;47.812;9.274;2023-03-13T12:32:33;17.50;99.90
19755;DHT22;10036;47.812;9.274;2023-03-13T12:35:07;17.50;99.90
19755;DHT22;10036;47.812;9.274;2023-03-13T12:37:40;17.50;99.90
19755;DHT22;10036;47.812;9.274;2023-03-13T12:40:19;17.30;99.90
19755;DHT22;10036;47.812;9.274;2023-03-13T12:42:52;17.40;99.90
19755;DHT22;10036;47.812;9.274;2023-03-13T12:45:23;17.40;99.90
19755;DHT22;10036;47.812;9.274;2023-03-13T12:48:16;17.40;99.90
19755;DHT22;10036;47.812;9.274;2023-03-13T12:51:03;17.30;99.90
19755;DHT22;10036;47.812;9.274;2023-03-13T12:53:57;17.40;99.90
19755;DHT22;10036;47.812;9.274;2023-03-13T12:56:46;17.40;99.90
19755;DHT22;10036;47.812;9.274;2023-03-13T12:59:18;17.40;99.90
19755;DHT22;10036;47.812;9.274;2023-03-13T13:01:49;17.40;99.90
19755;DHT22;10036;47.812;9.274;2023-03-13T13:04:19;17.50;99.90
19755;DHT22;10036;47.812;9.274;2023-03-13T13:06:53;17.60;99.90
19755;DHT22;10036;47.812;9.274;2023-03-13T13:09:23;17.70;99.90
19755;DHT22;10036;47.812;9.274;2023-03-13T13:11:53;17.80;99.90
19755;DHT22;10036;47.812;9.274;2023-03-13T13:17:55;17.80;99.90
19755;DHT22;10036;47.812;9.274;2023-03-13T13:20:45;17.90;99.90
19755;DHT22;10036;47.812;9.274;2023-03-13T13:23:33;18.10;99.90
19755;DHT22;10036;47.812;9.274;2023-03-13T13:32:13;18.40;99.90
19755;DHT22;10036;47.812;9.274;2023-03-13T13:34:57;18.40;99.90
19755;DHT22;10036;47.812;9.274;2023-03-13T13:37:26;18.60;99.90
19755;DHT22;10036;47.812;9.274;2023-03-13T13:42:50;18.70;99.90
19755;DHT22;10036;47.812;9.274;2023-03-13T13:45:26;18.70;99.90
19755;DHT22;10036;47.812;9.274;2023-03-13T13:51:24;18.60;99.90
19755;DHT22;10036;47.812;9.274;2023-03-13T13:53:53;18.70;99.90
19755;DHT22;10036;47.812;9.274;2023-03-13T13:56:44;18.70;99.90
19755;DHT22;10036;47.812;9.274;2023-03-13T13:59:35;18.90;99.90
19755;DHT22;10036;47.812;9.274;2023-03-13T14:02:15;18.80;99.90
19755;DHT22;10036;47.812;9.274;2023-03-13T14:04:48;18.90;99.90
19755;DHT22;10036;47.812;9.274;2023-03-13T14:07:19;18.90;99.90
19755;DHT22;10036;47.812;9.274;2023-03-13T14:09:57;19.10;99.90
19755;DHT22;10036;47.812;9.274;2023-03-13T14:12:27;19.30;99.90
19755;DHT22;10036;47.812;9.274;2023-03-13T14:15:22;19.30;99.90
19755;DHT22;10036;47.812;9.274;2023-03-13T14:17:51;19.30;99.90
19755;DHT22;10036;47.812;9.274;2023-03-13T14:20:24;19.30;99.90
19755;DHT22;10036;47.812;9.274;2023-03-13T14:22:55;19.30;99.90
19755;DHT22;10036;47.812;9.274;2023-03-13T14:25:23;19.50;99.90
19755;DHT22;10036;47.812;9.274;2023-03-13T14:27:52;19.70;99.90
19755;DHT22;10036;47.812;9.274;2023-03-13T14:30:20;19.70;99.90
19755;DHT22;10036;47.812;9.274;2023-03-13T14:32:47;19.60;99.90
19755;DHT22;10036;47.812;9.274;2023-03-13T14:35:17;19.60;99.90
19755;DHT22;10036;47.812;9.274;2023-03-13T14:37:46;19.60;99.90
19755;DHT22;10036;47.812;9.274;2023-03-13T14:40:24;19.70;99.90
19755;DHT22;10036;47.812;9.274;2023-03-13T14:42:53;19.60;99.90
19755;DHT22;10036;47.812;9.274;2023-03-13T14:45:24;19.60;99.90
19755;DHT22;10036;47.812;9.274;2023-03-13T14:47:52;19.80;99.90
19755;DHT22;10036;47.812;9.274;2023-03-13T14:50:22;20.00;99.90
19755;DHT22;10036;47.812;9.274;2023-03-13T14:52:52;20.20;99.90
19755;DHT22;10036;47.812;9.274;2023-03-13T14:55:32;20.30;99.90
19755;DHT22;10036;47.812;9.274;2023-03-13T14:58:01;20.10;99.90
19755;DHT22;10036;47.812;9.274;2023-03-13T15:00:39;20.20;99.90
19755;DHT22;10036;47.812;9.274;2023-03-13T15:03:31;20.40;99.90
19755;DHT22;10036;47.812;9.274;2023-03-13T15:06:12;20.20;99.90
19755;DHT22;10036;47.812;9.274;2023-03-13T15:08:42;20.20;99.90
19755;DHT22;10036;47.812;9.274;2023-03-13T15:11:25;19.90;99.90
19755;DHT22;10036;47.812;9.274;2023-03-13T15:13:53;19.70;99.90
19755;DHT22;10036;47.812;9.274;2023-03-13T15:16:21;19.80;99.90
19755;DHT22;10036;47.812;9.274;2023-03-13T15:18:49;19.80;99.90
19755;DHT22;10036;47.812;9.274;2023-03-13T15:21:22;19.70;99.90
19755;DHT22;10036;47.812;9.274;2023-03-13T15:23:51;19.60;99.90
19755;DHT22;10036;47.812;9.274;2023-03-13T15:26:20;19.70;99.90
19755;DHT22;10036;47.812;9.274;2023-03-13T15:28:47;19.60;99.90
19755;DHT22;10036;47.812;9.274;2023-03-13T15:31:14;19.50;99.90
19755;DHT22;10036;47.812;9.274;2023-03-13T15:33:41;19.70;99.90
19755;DHT22;10036;47.812;9.274;2023-03-13T15:36:10;19.70;99.90
19755;DHT22;10036;47.812;9.274;2023-03-13T15:38:38;19.80;99.90
19755;DHT22;10036;47.812;9.274;2023-03-13T15:41:05;19.90;99.90
19755;DHT22;10036;47.812;9.274;2023-03-13T15:43:35;20.00;99.90
19755;DHT22;10036;47.812;9.274;2023-03-13T15:46:02;20.10;99.90
19755;DHT22;10036;47.812;9.274;2023-03-13T15:48:29;19.90;99.90
19755;DHT22;10036;47.812;9.274;2023-03-13T15:50:59;19.80;99.90
19755;DHT22;10036;47.812;9.274;2023-03-13T15:53:28;19.90;99.90
19755;DHT22;10036;47.812;9.274;2023-03-13T15:55:57;19.70;99.90
19755;DHT22;10036;47.812;9.274;2023-03-13T15:58:24;19.60;99.90
19755;DHT22;10036;47.812;9.274;2023-03-13T16:00:54;19.50;99.90
19755;DHT22;10036;47.812;9.274;2023-03-13T16:03:23;19.50;99.90
19755;DHT22;10036;47.812;9.274;2023-03-13T16:05:51;19.50;99.90
19755;DHT22;10036;47.812;9.274;2023-03-13T16:08:20;19.30;99.90
19755;DHT22;10036;47.812;9.274;2023-03-13T16:10:48;19.20;99.90